Time;durP1;ratioP1;P1;durP2;ratioP2;P2;SDS_P1;SDS_P2;PMS_P1;PMS_P2;Temp;Humidity;BMP_temperature;BMP_pressure;BME280_temperature;BME280_humidity;BME280_pressure;Samples;Min_cycle;Max_cycle;Signal;HPM_P1;HPM_P2
2022/04/07 00:00:34;;;;;;;3.00;2.42;;;;;;;15.42;48.53;95803.88;5137083;27;20019;-32
2022/04/07 00:03:00;;;;;;;3.53;2.67;;;;;;;15.42;48.80;95803.13;5136996;27;20051;-32
2022/04/07 00:05:26;;;;;;;3.60;2.60;;;;;;;15.42;48.65;95801.13;5118667;27;20118;-32
2022/04/07 00:07:51;;;;;;;3.00;2.33;;;;;;;15.41;48.66;95805.09;5136946;27;20038;-34
2022/04/07 00:10:17;;;;;;;2.85;2.38;;;;;;;15.39;48.89;95807.53;5137507;27;20015;-32
2022/04/07 00:12:43;;;;;;;4.32;3.00;;;;;;;15.44;48.46;95804.16;5136935;27;20033;-32
2022/04/07 00:15:11;;;;;;;3.88;2.72;;;;;;;15.43;48.55;95799.91;5137079;27;20110;-32
2022/04/07 00:17:36;;;;;;;4.75;3.45;;;;;;;15.36;48.95;95805.00;5136889;27;20015;-32
2022/04/07 00:20:03;;;;;;;3.88;2.40;;;;;;;15.34;48.69;95801.97;5136886;27;20034;-32
2022/04/07 00:22:28;;;;;;;3.33;2.03;;;;;;;15.38;48.54;95802.53;5136878;27;20027;-32
2022/04/07 00:24:54;;;;;;;3.58;2.45;;;;;;;15.33;48.63;95797.75;5136833;27;20532;-32
2022/04/07 00:27:19;;;;;;;3.38;2.20;;;;;;;15.30;48.85;95799.44;5136918;27;20102;-32
2022/04/07 00:29:45;;;;;;;2.78;2.08;;;;;;;15.31;48.71;95795.50;5135793;27;20015;-32
2022/04/07 00:32:10;;;;;;;2.85;2.35;;;;;;;15.32;48.45;95783.34;5136733;27;20023;-32
2022/04/07 00:34:36;;;;;;;3.65;2.20;;;;;;;15.32;48.72;95788.81;5136583;27;20063;-32
2022/04/07 00:37:02;;;;;;;2.60;1.95;;;;;;;15.31;48.82;95784.56;5136664;27;20034;-32
2022/04/07 00:39:28;;;;;;;3.03;2.03;;;;;;;15.31;48.55;95781.84;5136266;27;20019;-32
2022/04/07 00:41:54;;;;;;;2.67;1.88;;;;;;;15.25;48.69;95788.41;5136427;27;20550;-32
2022/04/07 00:44:22;;;;;;;3.08;2.22;;;;;;;15.31;48.60;95776.38;5136408;27;20391;-32
2022/04/07 00:46:47;;;;;;;3.08;2.20;;;;;;;15.32;48.55;95777.88;5136326;27;20027;-32
2022/04/07 00:49:13;;;;;;;4.80;2.15;;;;;;;15.29;48.60;95778.81;5136229;27;20023;-32
2022/04/07 00:51:40;;;;;;;4.65;2.33;;;;;;;15.30;48.55;95780.31;5136198;27;20034;-32
2022/04/07 00:54:07;;;;;;;2.80;2.30;;;;;;;15.32;48.35;95783.34;5136337;27;20023;-32
2022/04/07 00:56:34;;;;;;;2.65;2.08;;;;;;;15.32;48.48;95783.34;5136157;27;20029;-32
2022/04/07 00:59:00;;;;;;;2.58;1.90;;;;;;;15.26;48.63;95787.94;5136080;27;20023;-32
2022/04/07 01:01:28;;;;;;;3.45;2.50;;;;;;;15.29;48.69;95786.25;5136079;27;20467;-32
2022/04/07 01:03:57;;;;;;;4.40;2.35;;;;;;;15.27;48.45;95781.25;5135726;27;20089;-32
2022/04/07 01:06:22;;;;;;;2.97;2.10;;;;;;;15.31;48.41;95783.81;5135876;27;20034;-32
2022/04/07 01:08:48;;;;;;;3.15;2.10;;;;;;;15.29;48.39;95778.06;5135833;27;20031;-33
2022/04/07 01:11:14;;;;;;;3.10;2.13;;;;;;;15.28;48.47;95782.78;5135811;27;20029;-32
2022/04/07 01:13:47;;;;;;;3.45;2.22;;;;;;;15.27;48.58;95778.53;5135807;27;20416;-32
2022/04/07 01:16:14;;;;;;;3.63;2.20;;;;;;;15.29;48.51;95775.34;5117348;27;20015;-32
2022/04/07 01:18:40;;;;;;;4.78;2.60;;;;;;;15.25;48.54;95780.22;5135700;27;20019;-32
2022/04/07 01:21:08;;;;;;;2.65;2.20;;;;;;;15.21;48.54;95779.66;5135630;27;20019;-32
2022/04/07 01:23:35;;;;;;;3.00;2.30;;;;;;;15.22;48.44;95776.47;5135785;27;20031;-32
2022/04/07 01:26:02;;;;;;;2.83;2.15;;;;;;;15.24;48.69;95776.75;5135547;27;20038;-32
2022/04/07 01:28:27;;;;;;;4.22;2.15;;;;;;;15.22;48.52;95776.47;5135435;27;20080;-32
2022/04/07 01:30:53;;;;;;;3.72;2.17;;;;;;;15.23;48.40;95775.22;5135358;27;20015;-32
2022/04/07 01:33:18;;;;;;;3.45;2.20;;;;;;;15.26;48.06;95779.75;5135418;27;20493;-32
2022/04/07 01:35:45;;;;;;;3.20;2.20;;;;;;;15.18;48.53;95775.91;5135644;27;20023;-32
2022/04/07 01:38:10;;;;;;;3.35;1.70;;;;;;;15.19;48.57;95780.16;5135635;27;20034;-32
2022/04/07 01:40:37;;;;;;;2.40;1.88;;;;;;;15.19;48.66;95776.66;5134765;27;20020;-32
2022/04/07 01:43:07;;;;;;;3.50;2.10;;;;;;;15.18;48.43;95778.66;5134986;27;20494;-32
2022/04/07 01:45:34;;;;;;;2.03;1.75;;;;;;;15.15;48.31;95776.84;5135268;27;20019;-32
2022/04/07 01:48:01;;;;;;;2.75;2.00;;;;;;;15.11;48.44;95773.53;5135087;27;20020;-32
2022/04/07 01:50:29;;;;;;;2.45;2.05;;;;;;;15.16;48.30;95772.91;5135192;27;20019;-32
2022/04/07 01:52:56;;;;;;;2.72;1.58;;;;;;;15.13;48.19;95775.81;5135015;27;20027;-32
2022/04/07 01:55:22;;;;;;;2.35;1.70;;;;;;;15.11;48.18;95781.75;5134811;27;20493;-32
2022/04/07 01:57:49;;;;;;;2.35;1.30;;;;;;;15.04;48.45;95784.84;5134830;27;20031;-32
2022/04/07 02:00:15;;;;;;;2.78;1.40;;;;;;;15.11;48.04;95776.28;5116445;27;20023;-32
2022/04/07 02:02:41;;;;;;;1.50;1.30;;;;;;;15.01;48.18;95769.41;5134720;27;20088;-32
2022/04/07 02:05:11;;;;;;;1.92;1.15;;;;;;;15.08;47.93;95774.50;5134973;27;20023;-32
2022/04/07 02:07:39;;;;;;;1.77;1.08;;;;;;;15.05;48.10;95773.47;5135063;27;20027;-32
2022/04/07 02:10:06;;;;;;;1.92;1.20;;;;;;;15.09;47.84;95776.75;5134694;27;20027;-32
2022/04/07 02:12:33;;;;;;;2.05;1.42;;;;;;;15.05;47.99;95773.47;5134549;27;20023;-32
2022/04/07 02:14:59;;;;;;;2.03;1.08;;;;;;;15.11;47.66;95779.00;5134915;27;20050;-32
2022/04/07 02:17:25;;;;;;;1.45;1.02;;;;;;;15.10;47.49;95778.25;5134899;27;20030;-32
2022/04/07 02:19:54;;;;;;;2.00;1.15;;;;;;;15.14;47.72;95783.53;5134436;27;20027;-32
2022/04/07 02:22:20;;;;;;;1.15;0.95;;;;;;;15.13;47.62;95773.06;5134767;27;20053;-32
2022/04/07 02:24:47;;;;;;;1.25;0.80;;;;;;;15.10;47.76;95769.31;5134548;27;20431;-32
2022/04/07 02:27:13;;;;;;;2.20;1.20;;;;;;;15.12;47.30;95777.03;5134687;27;20050;-32
2022/04/07 02:29:39;;;;;;;1.50;1.15;;;;;;;15.15;47.29;95774.13;5134661;27;20520;-33
2022/04/07 02:32:05;;;;;;;1.48;0.82;;;;;;;15.14;47.17;95777.31;5134770;27;20031;-32
2022/04/07 02:34:30;;;;;;;1.08;0.80;;;;;;;15.10;47.23;95782.97;5134253;27;20063;-32
2022/04/07 02:36:56;;;;;;;1.20;0.93;;;;;;;15.04;47.32;95777.41;5134247;27;20027;-32
2022/04/07 02:39:22;;;;;;;0.90;0.80;;;;;;;15.03;47.34;95777.88;5115917;28;20102;-32
2022/04/07 02:41:48;;;;;;;1.17;0.88;;;;;;;15.06;47.51;95774.97;5134293;28;20463;-32
2022/04/07 02:44:13;;;;;;;1.30;1.00;;;;;;;15.06;47.45;95782.41;5134462;28;20034;-32
2022/04/07 02:46:39;;;;;;;0.88;0.75;;;;;;;15.00;47.38;95773.38;5134288;28;20023;-32
2022/04/07 02:49:05;;;;;;;1.75;1.02;;;;;;;15.04;47.32;95774.69;5134215;28;20463;-32
2022/04/07 02:51:34;;;;;;;1.20;0.90;;;;;;;15.11;47.24;95768.09;5134127;28;20038;-32
2022/04/07 02:53:59;;;;;;;1.27;0.75;;;;;;;15.04;47.36;95769.22;5137034;27;20056;-32
2022/04/07 02:56:25;;;;;;;0.93;0.80;;;;;;;15.03;47.81;95772.44;5138548;27;20027;-33
2022/04/07 02:58:51;;;;;;;1.33;1.00;;;;;;;15.03;47.38;95770.44;5138298;27;20029;-32
2022/04/07 03:01:17;;;;;;;0.95;0.70;;;;;;;15.02;47.51;95782.59;5138403;27;20018;-32
2022/04/07 03:03:43;;;;;;;2.03;1.20;;;;;;;15.01;47.44;95777.59;5138172;27;20039;-32
2022/04/07 03:06:09;;;;;;;1.23;1.05;;;;;;;14.99;47.33;95783.53;5138237;27;20019;-32
2022/04/07 03:08:34;;;;;;;1.85;1.33;;;;;;;15.03;47.28;95781.38;5138100;27;20075;-32
2022/04/07 03:11:00;;;;;;;1.13;1.00;;;;;;;14.96;47.64;95781.00;5138261;27;20051;-32
2022/04/07 03:13:26;;;;;;;1.20;0.90;;;;;;;15.01;47.25;95786.56;5138407;27;20054;-32
2022/04/07 03:15:52;;;;;;;1.33;0.93;;;;;;;15.01;47.26;95791.25;5138004;27;20038;-33
2022/04/07 03:18:17;;;;;;;1.55;0.93;;;;;;;15.04;47.19;95796.53;5138438;27;20391;-32
2022/04/07 03:20:43;;;;;;;1.50;0.90;;;;;;;15.06;47.05;95798.81;5137958;27;20391;-32
2022/04/07 03:23:09;;;;;;;1.00;0.90;;;;;;;14.95;47.43;95806.81;5137826;27;20019;-32
2022/04/07 03:25:34;;;;;;;1.42;1.00;;;;;;;15.02;47.06;95803.69;5119531;27;20047;-32
2022/04/07 03:28:00;;;;;;;1.08;0.90;;;;;;;14.99;47.18;95810.09;5137904;27;20038;-32
2022/04/07 03:30:25;;;;;;;1.10;0.80;;;;;;;15.02;47.24;95812.63;5137888;27;20113;-32
2022/04/07 03:32:50;;;;;;;1.50;1.10;;;;;;;14.99;47.18;95815.53;5119349;27;20015;-32
2022/04/07 03:35:16;;;;;;;1.58;1.20;;;;;;;14.99;47.19;95821.75;5137811;27;20023;-32
2022/04/07 03:37:42;;;;;;;2.10;0.82;;;;;;;14.97;47.10;95816.00;5137669;27;20019;-32
2022/04/07 03:40:08;;;;;;;1.58;1.10;;;;;;;14.98;47.23;95811.31;5137678;27;20015;-32
2022/04/07 03:42:33;;;;;;;1.20;1.00;;;;;;;14.97;47.38;95812.53;5119113;27;20348;-32
2022/04/07 03:44:59;;;;;;;1.42;0.90;;;;;;;14.92;47.46;95824.88;5137769;27;20034;-32
2022/04/07 03:47:24;;;;;;;1.98;1.20;;;;;;;14.96;47.26;95819.22;5137829;27;20015;-32
2022/04/07 03:49:51;;;;;;;1.05;0.70;;;;;;;15.00;47.20;95817.06;5137703;27;20015;-32
2022/04/07 03:52:16;;;;;;;1.20;1.00;;;;;;;15.05;47.08;95817.16;5137603;27;20030;-32
2022/04/07 03:54:42;;;;;;;1.95;1.08;;;;;;;14.99;47.08;95823.72;5137308;27;20027;-32
2022/04/07 03:57:07;;;;;;;1.70;1.13;;;;;;;14.96;47.22;95816.50;5137526;27;20059;-32
2022/04/07 03:59:38;;;;;;;1.05;0.90;;;;;;;14.97;47.26;95812.53;5137269;27;20024;-32
2022/04/07 04:02:06;;;;;;;1.13;0.90;;;;;;;14.95;47.32;95810.28;5137418;27;20032;-32
2022/04/07 04:04:33;;;;;;;1.10;0.98;;;;;;;14.91;47.50;95806.22;5136649;27;20039;-32
2022/04/07 04:06:58;;;;;;;1.80;1.10;;;;;;;14.87;47.72;95800.19;5137083;27;20019;-32
2022/04/07 04:09:24;;;;;;;1.70;1.10;;;;;;;14.93;47.55;95795.59;5137074;27;20147;-32
2022/04/07 04:11:49;;;;;;;1.15;1.00;;;;;;;14.91;47.59;95801.53;5137317;27;20087;-32
2022/04/07 04:14:15;;;;;;;1.33;1.00;;;;;;;14.87;47.53;95814.59;5136941;27;20156;-32
2022/04/07 04:16:42;;;;;;;2.60;1.50;;;;;;;14.84;47.87;95820.22;5136900;27;20027;-32
2022/04/07 04:19:08;;;;;;;3.70;1.30;;;;;;;14.89;47.64;95833.22;5136812;27;20098;-32
2022/04/07 04:21:33;;;;;;;1.80;1.30;;;;;;;14.88;47.55;95829.75;5136999;27;20148;-34
2022/04/07 04:23:58;;;;;;;1.98;1.35;;;;;;;14.88;47.73;95834.44;5136830;27;20371;-32
2022/04/07 04:26:24;;;;;;;3.17;1.35;;;;;;;14.90;47.54;95845.66;5136819;27;20030;-32
2022/04/07 04:28:49;;;;;;;2.22;1.48;;;;;;;14.94;47.34;95841.53;5136763;27;20471;-32
2022/04/07 04:31:15;;;;;;;2.35;1.30;;;;;;;14.89;47.35;95834.00;5136511;27;20019;-32
2022/04/07 04:33:40;;;;;;;1.60;1.20;;;;;;;14.93;47.36;95839.28;5136659;27;20027;-32
2022/04/07 04:36:06;;;;;;;1.75;1.30;;;;;;;14.87;47.48;95839.16;5136596;27;20067;-32
2022/04/07 04:38:31;;;;;;;3.85;2.75;;;;;;;14.84;47.88;95847.53;5136598;27;20015;-32
2022/04/07 04:40:57;;;;;;;3.35;2.30;;;;;;;14.80;47.75;95849.69;5136430;27;20023;-32
2022/04/07 04:43:22;;;;;;;2.90;2.28;;;;;;;14.88;47.36;95848.09;5136577;27;20019;-33
2022/04/07 04:45:48;;;;;;;2.92;2.00;;;;;;;14.86;47.60;95837.66;5136395;27;20076;-32
2022/04/07 04:48:13;;;;;;;2.92;2.58;;;;;;;14.82;47.56;95847.25;5136342;27;20026;-32
2022/04/07 04:50:39;;;;;;;3.03;2.55;;;;;;;14.87;47.46;95841.13;5117662;27;20088;-32
2022/04/07 04:53:04;;;;;;;2.85;2.17;;;;;;;14.87;47.46;95841.13;5136358;27;20030;-33
2022/04/07 04:55:30;;;;;;;2.45;2.08;;;;;;;14.92;47.19;95840.50;5136338;27;20049;-32
2022/04/07 04:57:55;;;;;;;2.20;2.00;;;;;;;14.92;47.18;95841.25;5136000;27;20375;-32
2022/04/07 05:00:21;;;;;;;2.10;1.80;;;;;;;14.94;46.73;95841.53;5136010;27;20079;-32
2022/04/07 05:02:46;;;;;;;2.47;1.90;;;;;;;14.91;46.72;95845.19;5136007;27;20046;-32
2022/04/07 05:05:12;;;;;;;3.60;2.10;;;;;;;14.90;47.18;95851.88;5136085;27;20023;-32
2022/04/07 05:07:38;;;;;;;2.30;1.73;;;;;;;14.77;47.55;95859.56;5135806;27;20383;-32
2022/04/07 05:10:05;;;;;;;2.63;1.88;;;;;;;14.94;46.64;95868.09;5134756;27;20067;-32
2022/04/07 05:12:30;;;;;;;2.83;1.90;;;;;;;14.85;47.08;95876.34;5125870;27;20035;-32
2022/04/07 05:14:56;;;;;;;2.70;1.75;;;;;;;14.85;46.89;95859.94;5113302;28;20027;-32
2022/04/07 05:17:22;;;;;;;3.05;1.67;;;;;;;14.87;46.55;95858.28;5123198;27;20019;-32
2022/04/07 05:19:47;;;;;;;3.45;1.60;;;;;;;14.88;46.64;95864.47;5133465;27;20098;-32
2022/04/07 05:22:13;;;;;;;2.38;1.70;;;;;;;14.87;46.70;95879.34;5133431;27;20382;-32
2022/04/07 05:24:39;;;;;;;2.58;1.90;;;;;;;14.88;46.34;95869.94;5133581;27;20019;-33
2022/04/07 05:27:04;;;;;;;2.60;2.00;;;;;;;14.82;46.88;95885.47;5133548;27;20039;-33
2022/04/07 05:29:30;;;;;;;3.05;1.85;;;;;;;14.77;46.76;95897.03;5123097;27;20072;-32
2022/04/07 05:31:55;;;;;;;2.38;1.60;;;;;;;14.88;46.85;95903.47;5112939;28;20041;-32
2022/04/07 05:34:20;;;;;;;2.22;1.55;;;;;;;14.91;46.53;95913.47;5115426;27;20080;-32
2022/04/07 05:36:46;;;;;;;4.25;2.30;;;;;;;14.93;46.43;95910.25;5113034;28;20366;-32
2022/04/07 05:39:13;;;;;;;4.28;1.75;;;;;;;14.82;46.70;95916.25;5112868;28;20496;-32
2022/04/07 05:41:39;;;;;;;3.55;2.05;;;;;;;14.85;46.61;95915.31;5127311;27;20045;-32
2022/04/07 05:44:05;;;;;;;2.13;1.70;;;;;;;14.89;46.83;95926.81;5133148;27;20030;-32
2022/04/07 05:46:31;;;;;;;3.17;2.08;;;;;;;14.95;46.46;95940.59;5133119;27;20023;-32
2022/04/07 05:48:56;;;;;;;2.85;1.83;;;;;;;14.84;46.68;95937.63;5133060;27;20542;-31
2022/04/07 05:51:22;;;;;;;4.82;1.98;;;;;;;14.82;46.91;95935.38;5133162;27;20572;-32
2022/04/07 05:53:48;;;;;;;2.08;1.60;;;;;;;14.78;46.66;95942.22;5133107;27;20042;-32
2022/04/07 05:56:13;;;;;;;3.15;2.17;;;;;;;14.72;46.99;95945.56;5114623;27;20051;-32
2022/04/07 05:58:39;;;;;;;3.63;1.60;;;;;;;14.79;47.03;95960.09;5132112;27;20019;-32
2022/04/07 06:01:04;;;;;;;3.38;1.98;;;;;;;14.84;46.88;95954.00;5133000;27;20027;-33
2022/04/07 06:03:31;;;;;;;2.92;2.28;;;;;;;14.87;46.79;95958.53;5132838;27;20402;-32
2022/04/07 06:05:58;;;;;;;4.40;2.17;;;;;;;14.85;46.77;95963.69;5123407;27;20111;-32
2022/04/07 06:08:23;;;;;;;3.08;2.00;;;;;;;14.85;46.85;95969.16;5112124;28;20027;-32
2022/04/07 06:10:49;;;;;;;2.80;1.77;;;;;;;14.85;46.96;95980.84;5110462;28;20431;-32
2022/04/07 06:13:15;;;;;;;2.15;1.40;;;;;;;14.87;46.96;95972.19;5112283;28;20027;-32
2022/04/07 06:15:42;;;;;;;3.58;1.77;;;;;;;14.83;47.17;95971.63;5111913;28;20491;-32
2022/04/07 06:18:07;;;;;;;2.42;1.60;;;;;;;14.84;46.86;95975.84;5126467;27;20035;-32
2022/04/07 06:20:33;;;;;;;2.35;1.50;;;;;;;14.83;47.29;95988.00;5132724;27;20834;-32
2022/04/07 06:23:00;;;;;;;2.97;1.73;;;;;;;14.88;47.04;95984.63;5132400;27;20023;-32
2022/04/07 06:25:28;;;;;;;2.50;1.50;;;;;;;14.74;47.46;95975.91;5132617;27;20034;-32
2022/04/07 06:27:53;;;;;;;4.28;1.88;;;;;;;14.82;47.14;95976.31;5132521;27;20420;-32
2022/04/07 06:30:20;;;;;;;3.30;1.65;;;;;;;14.79;47.20;95966.31;5132610;27;20059;-32
2022/04/07 06:32:47;;;;;;;2.72;1.50;;;;;;;14.86;47.01;95967.94;5132558;27;20107;-32
2022/04/07 06:35:14;;;;;;;3.83;1.60;;;;;;;14.84;47.27;95971.13;5121805;27;20094;-32
2022/04/07 06:37:52;;;;;;;2.05;1.48;;;;;;;14.77;47.25;95965.28;5130726;27;20027;-33
2022/04/07 06:40:31;;;;;;;2.60;1.20;;;;;;;14.72;47.60;95975.59;5134497;27;20027;-32
2022/04/07 06:42:58;;;;;;;3.50;1.40;;;;;;;14.81;47.37;95968.59;5134044;27;20327;-32
2022/04/07 06:45:28;;;;;;;2.85;1.48;;;;;;;14.83;47.41;95982.53;5134366;28;20027;-32
2022/04/07 06:47:55;;;;;;;2.35;1.20;;;;;;;14.81;47.34;95979.50;5134291;28;20025;-32
2022/04/07 06:50:21;;;;;;;2.10;1.40;;;;;;;14.82;47.50;95986.47;5134372;28;20019;-33
2022/04/07 06:52:47;;;;;;;3.22;1.85;;;;;;;14.79;47.40;95993.63;5134239;28;20024;-32
2022/04/07 06:55:15;;;;;;;3.72;2.00;;;;;;;14.89;47.42;95986.88;5134244;28;20023;-32
2022/04/07 06:58:00;;;;;;;2.72;1.55;;;;;;;14.82;47.39;95989.22;5134245;28;20110;-32
2022/04/07 07:00:30;;;;;;;3.55;1.85;;;;;;;14.78;47.44;95986.66;5134544;28;20475;-32
2022/04/07 07:03:00;;;;;;;4.20;2.00;;;;;;;14.75;47.63;95982.09;5133903;28;20572;-32
2022/04/07 07:05:28;;;;;;;2.17;1.52;;;;;;;14.73;48.00;95990.00;5134126;28;20027;-32
2022/04/07 07:07:53;;;;;;;2.20;1.70;;;;;;;14.80;47.51;95997.09;5134025;28;20471;-32
2022/04/07 07:10:29;;;;;;;2.15;1.60;;;;;;;14.77;47.51;96001.50;5134159;28;20114;-33
2022/04/07 07:12:55;;;;;;;3.70;2.60;;;;;;;14.80;47.78;96002.56;5134036;28;20027;-32
2022/04/07 07:15:21;;;;;;;2.85;1.50;;;;;;;14.81;47.92;96004.09;5133284;28;20015;-32
2022/04/07 07:17:47;;;;;;;3.05;1.90;;;;;;;14.32;49.43;96003.22;5132744;27;20019;-32
2022/04/07 07:20:13;;;;;;;2.72;1.80;;;;;;;14.48;49.11;96013.03;5133390;27;20482;-32
2022/04/07 07:22:40;;;;;;;2.00;1.50;;;;;;;14.62;48.31;96017.81;5132823;27;20103;-32
2022/04/07 07:25:06;;;;;;;2.80;1.50;;;;;;;14.69;48.28;96017.50;5134175;27;20019;-32
2022/04/07 07:27:40;;;;;;;2.58;1.67;;;;;;;14.76;47.70;96019.09;5133697;27;20054;-32
2022/04/07 07:30:10;;;;;;;2.80;1.50;;;;;;;14.79;47.83;96029.09;5134032;27;20058;-32
2022/04/07 07:32:41;;;;;;;2.95;1.88;;;;;;;14.77;47.86;96034.28;5115406;27;20091;-32
2022/04/07 07:35:08;;;;;;;2.10;1.70;;;;;;;14.70;48.46;96040.84;5133793;27;20053;-32
2022/04/07 07:37:34;;;;;;;2.08;1.60;;;;;;;14.76;47.94;96042.91;5133974;27;20023;-32
2022/04/07 07:40:04;;;;;;;2.38;1.60;;;;;;;14.73;48.27;96050.06;5136548;27;20023;-32
2022/04/07 07:42:30;;;;;;;3.20;1.92;;;;;;;14.73;48.45;96045.34;5131710;27;20399;-32
2022/04/07 07:44:55;;;;;;;3.67;1.73;;;;;;;14.76;48.02;96046.41;5137601;27;20031;-32
2022/04/07 07:47:21;;;;;;;1.92;1.42;;;;;;;14.75;48.21;96044.91;5137116;27;20030;-32
2022/04/07 07:49:46;;;;;;;2.55;1.70;;;;;;;14.83;47.88;96048.81;5137549;27;20019;-32
2022/04/07 07:52:12;;;;;;;2.10;1.52;;;;;;;14.83;48.46;96056.25;5137477;27;20048;-32
2022/04/07 07:54:37;;;;;;;2.83;1.25;;;;;;;14.86;48.03;96069.72;5136822;27;20019;-33
2022/04/07 07:57:03;;;;;;;2.58;1.80;;;;;;;13.69;51.89;96057.91;5136884;27;20027;-31
2022/04/07 07:59:28;;;;;;;10.07;2.75;;;;;;;13.92;51.24;96066.19;5137289;27;20019;-30
2022/04/07 08:01:54;;;;;;;2.63;1.90;;;;;;;14.25;50.51;96060.06;5137344;27;20382;-32
2022/04/07 08:04:19;;;;;;;4.18;1.73;;;;;;;14.50;49.69;96059.72;5137046;27;20104;-31
2022/04/07 08:06:45;;;;;;;3.70;1.80;;;;;;;14.60;49.06;96058.44;5137238;27;20042;-31
2022/04/07 08:09:13;;;;;;;3.25;1.90;;;;;;;14.66;49.10;96067.53;5136974;27;20019;-31
2022/04/07 08:11:40;;;;;;;3.13;1.50;;;;;;;14.71;48.93;96064.16;5136190;27;20102;-31
2022/04/07 08:14:06;;;;;;;2.38;1.65;;;;;;;14.76;48.76;96065.50;5136657;27;20023;-30
2022/04/07 08:16:31;;;;;;;2.03;1.45;;;;;;;14.71;49.00;96075.06;5137004;27;20490;-31
2022/04/07 08:18:57;;;;;;;1.60;1.23;;;;;;;14.75;48.88;96069.47;5136800;27;20030;-30
2022/04/07 08:21:22;;;;;;;3.08;1.50;;;;;;;14.77;48.88;96077.19;5136875;27;20064;-30
2022/04/07 08:23:48;;;;;;;2.95;1.30;;;;;;;14.68;49.00;96084.22;5136844;27;20072;-31
2022/04/07 08:26:14;;;;;;;1.92;1.30;;;;;;;14.61;49.09;96081.78;5137135;27;20160;-31
2022/04/07 08:28:40;;;;;;;2.65;2.33;;;;;;;14.68;49.14;96081.47;5136832;27;20020;-31
2022/04/07 08:31:05;;;;;;;2.55;1.35;;;;;;;14.47;49.91;96073.50;5136636;27;20023;-31
2022/04/07 08:33:31;;;;;;;2.88;1.58;;;;;;;14.27;50.94;96079.47;5136569;27;20026;-31
2022/04/07 08:35:57;;;;;;;2.45;1.40;;;;;;;14.32;51.00;96089.75;5127899;27;20055;-31
2022/04/07 08:38:23;;;;;;;3.35;1.73;;;;;;;14.17;51.49;96088.88;5113972;27;20035;-32
2022/04/07 08:40:53;;;;;;;2.55;1.85;;;;;;;14.31;50.88;96085.53;5130004;27;20471;-30
2022/04/07 08:43:18;;;;;;;4.15;1.88;;;;;;;14.49;50.16;96090.19;5136511;27;20030;-31
2022/04/07 08:45:44;;;;;;;2.28;1.63;;;;;;;14.43;50.41;96087.34;5136346;27;20023;-31
2022/04/07 08:48:11;;;;;;;3.75;2.30;;;;;;;14.55;49.96;96094.56;5136626;27;20045;-30
2022/04/07 08:50:40;;;;;;;2.80;1.80;;;;;;;14.65;49.81;96093.31;5135308;27;20031;-31
2022/04/07 08:53:07;;;;;;;3.47;2.35;;;;;;;14.61;50.15;96100.16;5136172;27;20061;-30
2022/04/07 08:55:33;;;;;;;3.13;1.70;;;;;;;14.56;50.00;96096.09;5117994;27;20026;-31
2022/04/07 08:58:00;;;;;;;3.70;1.98;;;;;;;14.60;49.98;96085.75;5136014;27;20023;-31
2022/04/07 09:00:26;;;;;;;2.67;1.92;;;;;;;14.57;50.35;96089.41;5136064;27;20414;-31
2022/04/07 09:02:55;;;;;;;3.08;1.73;;;;;;;14.64;49.97;96083.63;5135999;27;20080;-31
2022/04/07 09:05:25;;;;;;;2.70;1.60;;;;;;;14.62;50.08;96088.00;5135937;27;20034;-31
2022/04/07 09:07:55;;;;;;;4.15;1.90;;;;;;;14.62;50.10;96086.03;5135897;27;20042;-31
2022/04/07 09:10:22;;;;;;;2.88;1.65;;;;;;;14.67;49.82;96081.94;5135967;27;20019;-31
2022/04/07 09:12:49;;;;;;;5.47;1.60;;;;;;;14.68;49.87;96089.66;5135858;27;20056;-31
2022/04/07 09:15:15;;;;;;;2.30;1.42;;;;;;;14.65;50.12;96096.03;5135851;27;20417;-31
2022/04/07 09:17:56;;;;;;;4.10;1.70;;;;;;;14.73;49.53;96099.94;5135971;27;20050;-31
2022/04/07 09:20:23;;;;;;;2.40;1.75;;;;;;;14.67;49.68;96095.59;5135760;27;20494;-31
2022/04/07 09:22:59;;;;;;;3.28;1.95;;;;;;;14.76;49.52;96100.25;5117151;27;20027;-31
2022/04/07 09:25:26;;;;;;;3.55;1.90;;;;;;;14.76;49.22;96102.97;5135665;27;20077;-31
2022/04/07 09:27:53;;;;;;;4.63;2.65;;;;;;;14.75;49.39;96102.22;5135567;27;20110;-30
2022/04/07 09:30:20;;;;;;;4.50;2.60;;;;;;;14.69;49.74;96106.81;5135604;27;20027;-30
2022/04/07 09:32:46;;;;;;;3.28;2.47;;;;;;;14.79;49.07;96118.44;5135456;27;20102;-30
2022/04/07 09:35:12;;;;;;;3.95;2.00;;;;;;;14.74;49.48;96119.81;5135590;27;20054;-31
2022/04/07 09:37:40;;;;;;;3.83;2.33;;;;;;;14.73;49.50;96110.09;5135505;27;20015;-31
2022/04/07 09:40:14;;;;;;;3.35;2.00;;;;;;;14.77;49.56;96104.50;5135161;27;20452;-30
2022/04/07 09:42:41;;;;;;;3.50;1.83;;;;;;;14.49;50.40;96109.28;5135346;27;20483;-30
2022/04/07 09:45:12;;;;;;;3.33;2.30;;;;;;;14.58;50.12;96110.03;5135400;27;20027;-31
2022/04/07 09:47:42;;;;;;;4.30;2.65;;;;;;;14.74;49.79;96119.81;5135046;27;20051;-30
2022/04/07 09:50:19;;;;;;;5.47;3.25;;;;;;;14.70;50.03;96117.25;5135260;27;20031;-31
2022/04/07 09:53:03;;;;;;;6.43;3.15;;;;;;;14.56;50.28;96122.63;5135260;27;20030;-31
2022/04/07 09:55:42;;;;;;;4.75;3.15;;;;;;;14.66;50.10;96121.38;5135149;27;20027;-31
2022/04/07 09:58:08;;;;;;;4.65;3.33;;;;;;;14.67;49.89;96118.19;5135012;27;20031;-31
2022/04/07 10:00:35;;;;;;;5.22;2.78;;;;;;;14.71;49.96;96116.03;5134912;27;20126;-30
2022/04/07 10:03:02;;;;;;;3.92;2.60;;;;;;;14.62;50.05;96124.25;5134552;27;20073;-30
2022/04/07 10:05:28;;;;;;;5.93;2.60;;;;;;;14.71;49.90;96124.22;5134894;27;20027;-31
2022/04/07 10:07:57;;;;;;;4.90;2.95;;;;;;;14.71;49.83;96120.75;5134949;27;20451;-30
2022/04/07 10:10:23;;;;;;;4.72;2.70;;;;;;;14.70;49.80;96125.44;5135160;27;20030;-30
2022/04/07 10:12:49;;;;;;;6.47;2.65;;;;;;;14.74;49.66;96128.75;5133063;27;20027;-30
2022/04/07 10:15:16;;;;;;;6.40;2.60;;;;;;;14.79;49.49;96119.19;5134548;27;20501;-30
2022/04/07 10:17:42;;;;;;;4.40;2.90;;;;;;;14.40;51.15;96123.72;5135020;27;20023;-31
2022/04/07 10:20:11;;;;;;;4.05;2.67;;;;;;;14.67;50.19;96120.91;5134624;27;20035;-31
2022/04/07 10:23:03;;;;;;;4.10;2.47;;;;;;;14.85;49.88;96119.31;5134468;27;20026;-31
2022/04/07 10:25:31;;;;;;;3.83;2.53;;;;;;;14.84;49.32;96115.06;5134880;27;20046;-30
2022/04/07 10:28:02;;;;;;;3.92;2.63;;;;;;;14.79;49.81;96119.19;5134461;27;20030;-31
2022/04/07 10:30:32;;;;;;;4.68;2.55;;;;;;;14.82;49.48;96117.53;5134550;27;20482;-32
2022/04/07 10:32:58;;;;;;;4.60;2.40;;;;;;;14.78;49.74;96134.06;5134539;27;20019;-30
2022/04/07 10:35:28;;;;;;;3.30;2.40;;;;;;;14.79;49.58;96130.13;5134466;27;20023;-31
2022/04/07 10:37:54;;;;;;;4.07;2.45;;;;;;;14.76;49.44;96122.09;5134300;27;20019;-31
2022/04/07 10:40:36;;;;;;;4.78;2.35;;;;;;;14.56;50.93;96128.06;5134335;27;20037;-30
2022/04/07 10:43:05;;;;;;;4.15;2.45;;;;;;;14.74;49.91;96115.09;5134168;27;20532;-30
2022/04/07 10:45:34;;;;;;;3.63;2.42;;;;;;;14.79;49.70;96127.38;5116252;28;20379;-32
2022/04/07 10:48:16;;;;;;;5.38;2.58;;;;;;;14.76;49.86;96124.81;5134245;28;20019;-31
2022/04/07 10:50:50;;;;;;;4.47;2.40;;;;;;;14.78;49.86;96127.84;5134414;28;20015;-30
2022/04/07 10:53:46;;;;;;;4.90;2.92;;;;;;;14.77;50.08;96123.59;5134393;28;20030;-30
2022/04/07 10:56:33;;;;;;;4.53;2.00;;;;;;;14.72;50.15;96124.97;5132037;28;20051;-30
2022/04/07 10:59:13;;;;;;;3.38;2.08;;;;;;;14.63;50.83;96128.50;5134346;28;20023;-30
2022/04/07 11:01:42;;;;;;;5.15;2.50;;;;;;;14.76;49.92;96133.00;5134227;28;20163;-31
2022/04/07 11:04:22;;;;;;;3.80;1.95;;;;;;;14.66;50.61;96135.00;5116971;28;20108;-31
2022/04/07 11:07:07;;;;;;;3.85;2.53;;;;;;;14.82;49.88;96136.63;5113644;28;20023;-31
2022/04/07 11:10:02;;;;;;;3.63;2.13;;;;;;;14.81;49.87;96137.84;5113437;28;20020;-30
2022/04/07 11:12:34;;;;;;;3.22;1.92;;;;;;;14.86;49.60;96132.50;5113539;28;20474;-30
2022/04/07 11:15:03;;;;;;;3.72;1.83;;;;;;;14.80;50.04;96142.56;5114959;28;20438;-30
2022/04/07 11:17:46;;;;;;;5.10;1.90;;;;;;;14.84;49.83;96148.59;5117858;28;20102;-31
2022/04/07 11:20:25;;;;;;;3.20;1.83;;;;;;;14.82;49.82;96142.09;5117476;28;20043;-31
2022/04/07 11:23:13;;;;;;;5.25;1.75;;;;;;;14.69;50.64;96148.50;5117535;28;20505;-30
2022/04/07 11:25:43;;;;;;;4.13;2.20;;;;;;;14.80;50.02;96158.16;5117471;28;20027;-31
2022/04/07 11:28:19;;;;;;;3.28;1.80;;;;;;;14.79;49.93;96153.94;5117460;28;20027;-30
2022/04/07 11:30:49;;;;;;;3.42;1.85;;;;;;;14.74;50.39;96153.31;5117276;28;20107;-30
2022/04/07 11:33:28;;;;;;;2.58;2.15;;;;;;;14.74;50.35;96150.59;5117647;28;20421;-31
2022/04/07 11:35:59;;;;;;;2.80;1.90;;;;;;;14.70;50.52;96152.75;5117411;28;20015;-30